Hartland, Michigan
Current Conditions -  °F | °C
As of 1:15 PM on Thursday 30 Oct 2014 (Local Time) from KOZW Reporting Station
Overcast Overcast  
Wind Chill:   Ceiling: 4300
Heat Index:   Visibility: 10mi
Dew Point:   Wind: 3mph
Humidity: 72%   Direction: 190°S
Pressure: 30.1"   Gusts: NA
Location:  42.66°N, 83.75°W
Report Text: KOZW 301715Z AUTO 19003KT 10SM OVC043 07/02 A3010 RMK AO2 T00710024
Loading
Personal Weather Stations






























Interactive Weather Map
Tropical Storm Tracking
New forecast layout! Learn more

10-Day Weather Forecast

Advertisements
Track Severe Weather on mobile